sensor_id;sensor_type;location;lat;lon;timestamp;temperature;humidity
28761;DHT22;15917;50.014;8.352;2022-12-20T00:01:30;2.20;99.90
28761;DHT22;15917;50.014;8.352;2022-12-20T00:03:57;2.20;99.90
28761;DHT22;15917;50.014;8.352;2022-12-20T00:06:24;2.20;99.90
28761;DHT22;15917;50.014;8.352;2022-12-20T00:08:58;2.20;99.90
28761;DHT22;15917;50.014;8.352;2022-12-20T00:11:24;2.30;99.90
28761;DHT22;15917;50.014;8.352;2022-12-20T00:13:51;2.30;99.90
28761;DHT22;15917;50.014;8.352;2022-12-20T00:16:20;2.20;99.90
28761;DHT22;15917;50.014;8.352;2022-12-20T00:18:46;2.30;99.90
28761;DHT22;15917;50.014;8.352;2022-12-20T00:21:15;2.30;99.90
28761;DHT22;15917;50.014;8.352;2022-12-20T00:23:41;2.30;99.90
28761;DHT22;15917;50.014;8.352;2022-12-20T00:26:11;2.30;99.90
28761;DHT22;15917;50.014;8.352;2022-12-20T00:28:39;2.30;99.90
28761;DHT22;15917;50.014;8.352;2022-12-20T00:31:07;2.30;99.90
28761;DHT22;15917;50.014;8.352;2022-12-20T00:33:34;2.30;99.90
28761;DHT22;15917;50.014;8.352;2022-12-20T00:36:00;2.30;99.90
28761;DHT22;15917;50.014;8.352;2022-12-20T00:38:26;2.30;99.90
28761;DHT22;15917;50.014;8.352;2022-12-20T00:41:25;2.40;99.90
28761;DHT22;15917;50.014;8.352;2022-12-20T00:43:51;2.30;99.90
28761;DHT22;15917;50.014;8.352;2022-12-20T00:46:18;2.40;99.90
28761;DHT22;15917;50.014;8.352;2022-12-20T00:48:45;2.40;99.90
28761;DHT22;15917;50.014;8.352;2022-12-20T00:51:13;2.40;99.90
28761;DHT22;15917;50.014;8.352;2022-12-20T00:53:40;2.40;99.90
28761;DHT22;15917;50.014;8.352;2022-12-20T00:56:06;2.40;99.90
28761;DHT22;15917;50.014;8.352;2022-12-20T00:58:33;2.40;99.90
28761;DHT22;15917;50.014;8.352;2022-12-20T01:01:00;2.50;99.90
28761;DHT22;15917;50.014;8.352;2022-12-20T01:03:26;2.50;99.90
28761;DHT22;15917;50.014;8.352;2022-12-20T01:05:53;2.50;99.90
28761;DHT22;15917;50.014;8.352;2022-12-20T01:08:20;2.50;99.90
28761;DHT22;15917;50.014;8.352;2022-12-20T01:10:46;2.50;99.90
28761;DHT22;15917;50.014;8.352;2022-12-20T01:13:12;2.50;99.90
28761;DHT22;15917;50.014;8.352;2022-12-20T01:15:38;2.50;99.90
28761;DHT22;15917;50.014;8.352;2022-12-20T01:18:04;2.50;99.90
28761;DHT22;15917;50.014;8.352;2022-12-20T01:20:29;2.60;99.90
28761;DHT22;15917;50.014;8.352;2022-12-20T01:22:55;2.60;99.90
28761;DHT22;15917;50.014;8.352;2022-12-20T01:25:21;2.50;99.90
28761;DHT22;15917;50.014;8.352;2022-12-20T01:27:46;2.60;99.90
28761;DHT22;15917;50.014;8.352;2022-12-20T01:30:12;2.50;99.90
28761;DHT22;15917;50.014;8.352;2022-12-20T01:32:38;2.60;99.90
28761;DHT22;15917;50.014;8.352;2022-12-20T01:35:04;2.60;99.90
28761;DHT22;15917;50.014;8.352;2022-12-20T01:37:30;2.60;99.90
28761;DHT22;15917;50.014;8.352;2022-12-20T01:39:56;2.60;99.90
28761;DHT22;15917;50.014;8.352;2022-12-20T01:42:22;2.60;99.90
28761;DHT22;15917;50.014;8.352;2022-12-20T01:44:52;2.60;99.90
28761;DHT22;15917;50.014;8.352;2022-12-20T01:47:19;2.60;99.90
28761;DHT22;15917;50.014;8.352;2022-12-20T01:49:47;2.60;99.90
28761;DHT22;15917;50.014;8.352;2022-12-20T01:52:23;2.60;99.90
28761;DHT22;15917;50.014;8.352;2022-12-20T01:54:59;2.50;99.90
28761;DHT22;15917;50.014;8.352;2022-12-20T01:57:34;2.50;99.90
28761;DHT22;15917;50.014;8.352;2022-12-20T02:00:02;2.50;99.90
28761;DHT22;15917;50.014;8.352;2022-12-20T02:02:40;2.50;99.90
28761;DHT22;15917;50.014;8.352;2022-12-20T02:05:06;2.40;99.90
28761;DHT22;15917;50.014;8.352;2022-12-20T02:07:33;2.40;99.90
28761;DHT22;15917;50.014;8.352;2022-12-20T02:10:01;2.40;99.90
28761;DHT22;15917;50.014;8.352;2022-12-20T02:12:47;2.40;99.90
28761;DHT22;15917;50.014;8.352;2022-12-20T02:15:34;2.40;99.90
28761;DHT22;15917;50.014;8.352;2022-12-20T02:28:44;2.40;99.90
28761;DHT22;15917;50.014;8.352;2022-12-20T02:31:18;2.30;99.90
28761;DHT22;15917;50.014;8.352;2022-12-20T02:33:46;2.40;99.90
28761;DHT22;15917;50.014;8.352;2022-12-20T02:36:15;2.40;99.90
28761;DHT22;15917;50.014;8.352;2022-12-20T02:38:41;2.40;99.90
28761;DHT22;15917;50.014;8.352;2022-12-20T02:41:23;2.40;99.90
28761;DHT22;15917;50.014;8.352;2022-12-20T02:43:58;2.40;99.90
28761;DHT22;15917;50.014;8.352;2022-12-20T02:46:43;2.40;99.90
28761;DHT22;15917;50.014;8.352;2022-12-20T02:49:15;2.50;99.90
28761;DHT22;15917;50.014;8.352;2022-12-20T02:51:43;2.40;99.90
28761;DHT22;15917;50.014;8.352;2022-12-20T02:54:10;2.50;99.90
28761;DHT22;15917;50.014;8.352;2022-12-20T02:56:45;2.40;99.90
28761;DHT22;15917;50.014;8.352;2022-12-20T02:59:17;2.40;99.90
28761;DHT22;15917;50.014;8.352;2022-12-20T03:01:47;2.40;99.90
28761;DHT22;15917;50.014;8.352;2022-12-20T03:04:15;2.40;99.90
28761;DHT22;15917;50.014;8.352;2022-12-20T03:06:58;2.40;99.90
28761;DHT22;15917;50.014;8.352;2022-12-20T03:09:24;2.40;99.90
28761;DHT22;15917;50.014;8.352;2022-12-20T03:11:51;2.40;99.90
28761;DHT22;15917;50.014;8.352;2022-12-20T03:14:17;2.40;99.90
28761;DHT22;15917;50.014;8.352;2022-12-20T03:16:43;2.40;99.90
28761;DHT22;15917;50.014;8.352;2022-12-20T03:19:09;2.50;99.90
28761;DHT22;15917;50.014;8.352;2022-12-20T03:21:34;2.50;99.90
28761;DHT22;15917;50.014;8.352;2022-12-20T03:24:00;2.40;99.90
28761;DHT22;15917;50.014;8.352;2022-12-20T03:26:25;2.50;99.90
28761;DHT22;15917;50.014;8.352;2022-12-20T03:28:56;2.50;99.90
28761;DHT22;15917;50.014;8.352;2022-12-20T03:31:25;2.50;99.90
28761;DHT22;15917;50.014;8.352;2022-12-20T03:33:53;2.50;99.90
28761;DHT22;15917;50.014;8.352;2022-12-20T03:36:19;2.50;99.90
28761;DHT22;15917;50.014;8.352;2022-12-20T03:38:49;2.50;99.90
28761;DHT22;15917;50.014;8.352;2022-12-20T03:41:14;2.50;99.90
28761;DHT22;15917;50.014;8.352;2022-12-20T03:43:40;2.50;99.90
28761;DHT22;15917;50.014;8.352;2022-12-20T03:46:06;2.50;99.90
28761;DHT22;15917;50.014;8.352;2022-12-20T03:48:36;2.50;99.90
28761;DHT22;15917;50.014;8.352;2022-12-20T03:51:03;2.50;99.90
28761;DHT22;15917;50.014;8.352;2022-12-20T03:53:28;2.60;99.90
28761;DHT22;15917;50.014;8.352;2022-12-20T03:55:55;2.60;99.90
28761;DHT22;15917;50.014;8.352;2022-12-20T03:58:21;2.60;99.90
28761;DHT22;15917;50.014;8.352;2022-12-20T04:00:47;2.60;99.90
28761;DHT22;15917;50.014;8.352;2022-12-20T04:03:36;2.60;99.90
28761;DHT22;15917;50.014;8.352;2022-12-20T04:06:02;2.60;99.90
28761;DHT22;15917;50.014;8.352;2022-12-20T04:08:29;2.60;99.90
28761;DHT22;15917;50.014;8.352;2022-12-20T04:10:55;2.60;99.90
28761;DHT22;15917;50.014;8.352;2022-12-20T04:13:47;2.60;99.90
28761;DHT22;15917;50.014;8.352;2022-12-20T04:16:15;2.60;99.90
28761;DHT22;15917;50.014;8.352;2022-12-20T04:18:41;2.60;99.90
28761;DHT22;15917;50.014;8.352;2022-12-20T04:21:08;2.60;99.90
28761;DHT22;15917;50.014;8.352;2022-12-20T04:23:40;2.60;99.90
28761;DHT22;15917;50.014;8.352;2022-12-20T04:26:07;2.70;99.90
28761;DHT22;15917;50.014;8.352;2022-12-20T04:28:34;2.70;99.90
28761;DHT22;15917;50.014;8.352;2022-12-20T04:31:00;2.70;99.90
28761;DHT22;15917;50.014;8.352;2022-12-20T04:33:29;2.70;99.90
28761;DHT22;15917;50.014;8.352;2022-12-20T04:35:55;2.70;99.90
28761;DHT22;15917;50.014;8.352;2022-12-20T04:38:22;2.70;99.90
28761;DHT22;15917;50.014;8.352;2022-12-20T04:40:49;2.60;99.90
28761;DHT22;15917;50.014;8.352;2022-12-20T04:43:16;2.60;99.90
28761;DHT22;15917;50.014;8.352;2022-12-20T04:45:41;2.60;99.90
28761;DHT22;15917;50.014;8.352;2022-12-20T04:48:10;2.50;99.90
28761;DHT22;15917;50.014;8.352;2022-12-20T04:50:38;2.50;99.90
28761;DHT22;15917;50.014;8.352;2022-12-20T04:53:04;2.50;99.90
28761;DHT22;15917;50.014;8.352;2022-12-20T04:55:51;2.50;99.90
28761;DHT22;15917;50.014;8.352;2022-12-20T04:58:17;2.50;99.90
28761;DHT22;15917;50.014;8.352;2022-12-20T05:00:43;2.60;99.90
28761;DHT22;15917;50.014;8.352;2022-12-20T05:03:29;2.60;99.90
28761;DHT22;15917;50.014;8.352;2022-12-20T05:05:55;2.60;99.90
28761;DHT22;15917;50.014;8.352;2022-12-20T05:08:22;2.50;99.90
28761;DHT22;15917;50.014;8.352;2022-12-20T05:10:50;2.60;99.90
28761;DHT22;15917;50.014;8.352;2022-12-20T05:13:16;2.60;99.90
28761;DHT22;15917;50.014;8.352;2022-12-20T05:15:43;2.60;99.90
28761;DHT22;15917;50.014;8.352;2022-12-20T05:18:10;2.60;99.90
28761;DHT22;15917;50.014;8.352;2022-12-20T05:20:49;2.70;99.90
28761;DHT22;15917;50.014;8.352;2022-12-20T05:23:36;2.70;99.90
28761;DHT22;15917;50.014;8.352;2022-12-20T05:26:25;2.70;99.90
28761;DHT22;15917;50.014;8.352;2022-12-20T05:28:53;2.70;99.90
28761;DHT22;15917;50.014;8.352;2022-12-20T05:31:19;2.70;99.90
28761;DHT22;15917;50.014;8.352;2022-12-20T05:33:45;2.70;99.90
28761;DHT22;15917;50.014;8.352;2022-12-20T05:36:11;2.70;99.90
28761;DHT22;15917;50.014;8.352;2022-12-20T05:38:38;2.80;99.90
28761;DHT22;15917;50.014;8.352;2022-12-20T05:41:10;2.70;99.90
28761;DHT22;15917;50.014;8.352;2022-12-20T05:43:36;2.70;99.90
28761;DHT22;15917;50.014;8.352;2022-12-20T05:46:03;2.70;99.90
28761;DHT22;15917;50.014;8.352;2022-12-20T05:48:37;2.70;99.90
28761;DHT22;15917;50.014;8.352;2022-12-20T05:51:04;2.70;99.90
28761;DHT22;15917;50.014;8.352;2022-12-20T05:53:32;2.70;99.90
28761;DHT22;15917;50.014;8.352;2022-12-20T05:56:01;2.70;99.90
28761;DHT22;15917;50.014;8.352;2022-12-20T05:58:30;2.70;99.90
28761;DHT22;15917;50.014;8.352;2022-12-20T06:01:00;2.70;99.90
28761;DHT22;15917;50.014;8.352;2022-12-20T06:03:26;2.70;99.90
28761;DHT22;15917;50.014;8.352;2022-12-20T06:05:52;2.80;99.90
28761;DHT22;15917;50.014;8.352;2022-12-20T06:08:26;2.80;99.90
28761;DHT22;15917;50.014;8.352;2022-12-20T06:10:53;2.80;99.90
28761;DHT22;15917;50.014;8.352;2022-12-20T06:13:19;2.80;99.90
28761;DHT22;15917;50.014;8.352;2022-12-20T06:15:47;2.80;99.90
28761;DHT22;15917;50.014;8.352;2022-12-20T06:18:13;2.90;99.90
28761;DHT22;15917;50.014;8.352;2022-12-20T06:20:39;2.90;99.90
28761;DHT22;15917;50.014;8.352;2022-12-20T06:23:06;2.90;99.90
28761;DHT22;15917;50.014;8.352;2022-12-20T06:25:40;2.90;99.90
28761;DHT22;15917;50.014;8.352;2022-12-20T06:28:06;2.90;99.90
28761;DHT22;15917;50.014;8.352;2022-12-20T06:30:32;2.90;99.90
28761;DHT22;15917;50.014;8.352;2022-12-20T06:33:06;2.90;99.90
28761;DHT22;15917;50.014;8.352;2022-12-20T06:35:32;2.90;99.90
28761;DHT22;15917;50.014;8.352;2022-12-20T06:37:58;2.90;99.90
28761;DHT22;15917;50.014;8.352;2022-12-20T06:40:25;2.90;99.90
28761;DHT22;15917;50.014;8.352;2022-12-20T06:42:52;2.90;99.90
28761;DHT22;15917;50.014;8.352;2022-12-20T06:45:21;2.90;99.90
28761;DHT22;15917;50.014;8.352;2022-12-20T06:47:47;2.90;99.90
28761;DHT22;15917;50.014;8.352;2022-12-20T06:50:12;2.90;99.90
28761;DHT22;15917;50.014;8.352;2022-12-20T06:52:39;2.90;99.90
28761;DHT22;15917;50.014;8.352;2022-12-20T06:55:05;2.90;99.90
28761;DHT22;15917;50.014;8.352;2022-12-20T06:57:34;2.90;99.90
28761;DHT22;15917;50.014;8.352;2022-12-20T07:00:00;3.00;99.90
28761;DHT22;15917;50.014;8.352;2022-12-20T07:02:26;3.00;99.90
28761;DHT22;15917;50.014;8.352;2022-12-20T07:04:52;3.00;99.90
28761;DHT22;15917;50.014;8.352;2022-12-20T07:07:17;3.00;99.90
28761;DHT22;15917;50.014;8.352;2022-12-20T07:09:43;3.10;99.90
28761;DHT22;15917;50.014;8.352;2022-12-20T07:12:09;3.10;99.90
28761;DHT22;15917;50.014;8.352;2022-12-20T07:14:35;3.20;99.90
28761;DHT22;15917;50.014;8.352;2022-12-20T07:17:01;3.30;99.90
28761;DHT22;15917;50.014;8.352;2022-12-20T07:19:26;3.40;99.90
28761;DHT22;15917;50.014;8.352;2022-12-20T07:21:52;4.80;99.90
28761;DHT22;15917;50.014;8.352;2022-12-20T07:24:17;5.60;99.90
28761;DHT22;15917;50.014;8.352;2022-12-20T07:26:43;6.00;99.90
28761;DHT22;15917;50.014;8.352;2022-12-20T07:29:11;5.50;99.90
28761;DHT22;15917;50.014;8.352;2022-12-20T07:31:36;5.00;99.90
28761;DHT22;15917;50.014;8.352;2022-12-20T07:34:02;4.60;99.90
28761;DHT22;15917;50.014;8.352;2022-12-20T07:36:28;4.30;99.90
28761;DHT22;15917;50.014;8.352;2022-12-20T07:38:53;4.10;99.90
28761;DHT22;15917;50.014;8.352;2022-12-20T07:41:19;3.90;99.90
28761;DHT22;15917;50.014;8.352;2022-12-20T07:43:45;3.70;99.90
28761;DHT22;15917;50.014;8.352;2022-12-20T07:46:15;3.70;99.90
28761;DHT22;15917;50.014;8.352;2022-12-20T07:48:41;3.80;99.90
28761;DHT22;15917;50.014;8.352;2022-12-20T07:51:17;3.80;99.90
28761;DHT22;15917;50.014;8.352;2022-12-20T07:53:51;3.90;99.90
28761;DHT22;15917;50.014;8.352;2022-12-20T07:56:20;4.00;99.90
28761;DHT22;15917;50.014;8.352;2022-12-20T07:58:46;4.00;99.90
28761;DHT22;15917;50.014;8.352;2022-12-20T08:01:13;4.00;99.90
28761;DHT22;15917;50.014;8.352;2022-12-20T08:03:43;3.90;99.90
28761;DHT22;15917;50.014;8.352;2022-12-20T08:06:11;3.90;99.90
28761;DHT22;15917;50.014;8.352;2022-12-20T08:08:42;3.90;99.90
28761;DHT22;15917;50.014;8.352;2022-12-20T08:11:09;3.80;99.90
28761;DHT22;15917;50.014;8.352;2022-12-20T08:13:35;4.00;99.90
28761;DHT22;15917;50.014;8.352;2022-12-20T08:16:01;4.00;99.90
28761;DHT22;15917;50.014;8.352;2022-12-20T08:18:27;4.00;99.90
28761;DHT22;15917;50.014;8.352;2022-12-20T08:20:52;3.90;99.90
28761;DHT22;15917;50.014;8.352;2022-12-20T08:23:18;4.00;99.90
28761;DHT22;15917;50.014;8.352;2022-12-20T08:25:44;4.00;99.90
28761;DHT22;15917;50.014;8.352;2022-12-20T08:28:10;4.00;99.90
28761;DHT22;15917;50.014;8.352;2022-12-20T08:30:36;4.10;99.90
28761;DHT22;15917;50.014;8.352;2022-12-20T08:33:02;6.50;99.90
28761;DHT22;15917;50.014;8.352;2022-12-20T08:35:28;7.00;99.90
28761;DHT22;15917;50.014;8.352;2022-12-20T08:37:53;6.70;99.90
28761;DHT22;15917;50.014;8.352;2022-12-20T08:40:19;6.20;99.90
28761;DHT22;15917;50.014;8.352;2022-12-20T08:42:45;5.70;99.90
28761;DHT22;15917;50.014;8.352;2022-12-20T08:45:11;5.30;99.90
28761;DHT22;15917;50.014;8.352;2022-12-20T08:47:36;4.90;99.90
28761;DHT22;15917;50.014;8.352;2022-12-20T08:50:03;4.70;99.90
28761;DHT22;15917;50.014;8.352;2022-12-20T08:52:29;4.50;99.90
28761;DHT22;15917;50.014;8.352;2022-12-20T08:54:54;4.40;99.90
28761;DHT22;15917;50.014;8.352;2022-12-20T08:57:20;4.30;99.90
28761;DHT22;15917;50.014;8.352;2022-12-20T08:59:46;4.20;99.90
28761;DHT22;15917;50.014;8.352;2022-12-20T09:02:11;4.20;99.90
28761;DHT22;15917;50.014;8.352;2022-12-20T09:04:37;4.20;99.90
28761;DHT22;15917;50.014;8.352;2022-12-20T09:07:03;4.10;99.90
28761;DHT22;15917;50.014;8.352;2022-12-20T09:09:28;4.10;99.90
28761;DHT22;15917;50.014;8.352;2022-12-20T09:11:54;4.10;99.90
28761;DHT22;15917;50.014;8.352;2022-12-20T09:14:20;4.00;99.90
28761;DHT22;15917;50.014;8.352;2022-12-20T09:16:45;4.00;99.90
28761;DHT22;15917;50.014;8.352;2022-12-20T09:19:13;4.10;99.90
28761;DHT22;15917;50.014;8.352;2022-12-20T09:21:38;4.00;99.90
28761;DHT22;15917;50.014;8.352;2022-12-20T09:24:04;4.00;99.90
28761;DHT22;15917;50.014;8.352;2022-12-20T09:26:31;4.00;99.90
28761;DHT22;15917;50.014;8.352;2022-12-20T09:28:57;4.10;99.90
28761;DHT22;15917;50.014;8.352;2022-12-20T09:31:24;4.10;99.90
28761;DHT22;15917;50.014;8.352;2022-12-20T09:33:54;4.10;99.90
28761;DHT22;15917;50.014;8.352;2022-12-20T09:36:21;4.10;99.90
28761;DHT22;15917;50.014;8.352;2022-12-20T09:38:47;4.10;99.90
28761;DHT22;15917;50.014;8.352;2022-12-20T09:41:30;4.10;99.90
28761;DHT22;15917;50.014;8.352;2022-12-20T09:44:02;4.10;99.90
28761;DHT22;15917;50.014;8.352;2022-12-20T09:46:28;4.20;99.90
28761;DHT22;15917;50.014;8.352;2022-12-20T09:48:54;4.20;99.90
28761;DHT22;15917;50.014;8.352;2022-12-20T09:51:35;4.20;99.90
28761;DHT22;15917;50.014;8.352;2022-12-20T09:54:22;4.20;99.90
28761;DHT22;15917;50.014;8.352;2022-12-20T09:57:02;4.20;99.90
28761;DHT22;15917;50.014;8.352;2022-12-20T09:59:33;4.30;99.90
28761;DHT22;15917;50.014;8.352;2022-12-20T10:01:59;4.30;99.90
28761;DHT22;15917;50.014;8.352;2022-12-20T10:04:26;4.30;99.90
28761;DHT22;15917;50.014;8.352;2022-12-20T10:11:05;4.40;99.90
28761;DHT22;15917;50.014;8.352;2022-12-20T10:13:09;4.40;99.90
28761;DHT22;15917;50.014;8.352;2022-12-20T10:15:52;4.40;99.90
28761;DHT22;15917;50.014;8.352;2022-12-20T10:18:30;4.40;99.90
28761;DHT22;15917;50.014;8.352;2022-12-20T10:23:39;4.50;99.90
28761;DHT22;15917;50.014;8.352;2022-12-20T10:26:09;4.50;99.90
28761;DHT22;15917;50.014;8.352;2022-12-20T10:28:35;4.50;99.90
28761;DHT22;15917;50.014;8.352;2022-12-20T10:31:02;4.50;99.90
28761;DHT22;15917;50.014;8.352;2022-12-20T10:33:30;4.50;99.90
28761;DHT22;15917;50.014;8.352;2022-12-20T10:36:26;4.50;99.90
28761;DHT22;15917;50.014;8.352;2022-12-20T10:39:04;4.50;99.90
28761;DHT22;15917;50.014;8.352;2022-12-20T10:41:33;4.60;99.90
28761;DHT22;15917;50.014;8.352;2022-12-20T10:44:27;4.60;99.90
28761;DHT22;15917;50.014;8.352;2022-12-20T10:46:56;4.70;99.90
28761;DHT22;15917;50.014;8.352;2022-12-20T10:49:32;4.80;99.90
28761;DHT22;15917;50.014;8.352;2022-12-20T10:57:11;4.90;99.90
28761;DHT22;15917;50.014;8.352;2022-12-20T10:59:42;4.90;99.90
28761;DHT22;15917;50.014;8.352;2022-12-20T11:02:28;5.00;99.90
28761;DHT22;15917;50.014;8.352;2022-12-20T11:05:01;5.00;99.90
28761;DHT22;15917;50.014;8.352;2022-12-20T11:07:30;5.00;99.90
28761;DHT22;15917;50.014;8.352;2022-12-20T11:12:38;5.40;99.90
28761;DHT22;15917;50.014;8.352;2022-12-20T11:15:23;5.40;99.90
28761;DHT22;15917;50.014;8.352;2022-12-20T11:18:02;5.50;99.90
28761;DHT22;15917;50.014;8.352;2022-12-20T11:31:38;5.60;99.90
28761;DHT22;15917;50.014;8.352;2022-12-20T11:37:18;5.50;99.90
28761;DHT22;15917;50.014;8.352;2022-12-20T11:39:56;5.50;99.90
28761;DHT22;15917;50.014;8.352;2022-12-20T11:45:47;5.40;99.90
28761;DHT22;15917;50.014;8.352;2022-12-20T11:48:27;5.30;99.90
28761;DHT22;15917;50.014;8.352;2022-12-20T11:53:44;6.90;99.90
28761;DHT22;15917;50.014;8.352;2022-12-20T11:56:36;7.30;99.90
28761;DHT22;15917;50.014;8.352;2022-12-20T12:01:44;6.60;99.90
28761;DHT22;15917;50.014;8.352;2022-12-20T12:04:24;6.40;99.90
28761;DHT22;15917;50.014;8.352;2022-12-20T12:10:19;6.10;99.90
28761;DHT22;15917;50.014;8.352;2022-12-20T12:12:51;6.00;99.90
28761;DHT22;15917;50.014;8.352;2022-12-20T12:15:27;5.90;99.90
28761;DHT22;15917;50.014;8.352;2022-12-20T12:18:13;5.80;99.90
28761;DHT22;15917;50.014;8.352;2022-12-20T12:21:05;5.80;99.90
28761;DHT22;15917;50.014;8.352;2022-12-20T12:26:33;5.70;99.90
28761;DHT22;15917;50.014;8.352;2022-12-20T12:34:50;5.60;99.90
28761;DHT22;15917;50.014;8.352;2022-12-20T12:40:39;5.50;99.90
28761;DHT22;15917;50.014;8.352;2022-12-20T12:43:25;5.50;99.90
28761;DHT22;15917;50.014;8.352;2022-12-20T12:46:02;5.50;99.90
28761;DHT22;15917;50.014;8.352;2022-12-20T12:51:05;7.20;99.90
28761;DHT22;15917;50.014;8.352;2022-12-20T13:04:29;6.30;99.90
28761;DHT22;15917;50.014;8.352;2022-12-20T13:07:02;6.20;99.90
28761;DHT22;15917;50.014;8.352;2022-12-20T13:09:47;6.20;99.90
28761;DHT22;15917;50.014;8.352;2022-12-20T13:18:00;6.00;99.90
28761;DHT22;15917;50.014;8.352;2022-12-20T13:20:31;6.00;99.90
28761;DHT22;15917;50.014;8.352;2022-12-20T13:25:48;5.90;99.90
28761;DHT22;15917;50.014;8.352;2022-12-20T13:33:39;6.20;99.90
28761;DHT22;15917;50.014;8.352;2022-12-20T13:46:46;6.10;99.90
28761;DHT22;15917;50.014;8.352;2022-12-20T13:49:25;6.20;99.90
28761;DHT22;15917;50.014;8.352;2022-12-20T13:52:30;6.20;99.90
28761;DHT22;15917;50.014;8.352;2022-12-20T13:55:14;6.20;99.90
28761;DHT22;15917;50.014;8.352;2022-12-20T13:57:42;6.20;99.90
28761;DHT22;15917;50.014;8.352;2022-12-20T14:00:16;6.20;99.90
28761;DHT22;15917;50.014;8.352;2022-12-20T14:02:42;6.20;99.90
28761;DHT22;15917;50.014;8.352;2022-12-20T14:05:18;6.20;99.90
28761;DHT22;15917;50.014;8.352;2022-12-20T14:07:47;6.30;99.90
28761;DHT22;15917;50.014;8.352;2022-12-20T14:10:21;6.50;99.90
28761;DHT22;15917;50.014;8.352;2022-12-20T14:12:52;6.50;99.90
28761;DHT22;15917;50.014;8.352;2022-12-20T14:15:33;6.50;99.90
28761;DHT22;15917;50.014;8.352;2022-12-20T14:18:20;6.40;99.90
28761;DHT22;15917;50.014;8.352;2022-12-20T14:20:51;6.30;99.90
28761;DHT22;15917;50.014;8.352;2022-12-20T14:23:22;6.30;99.90
28761;DHT22;15917;50.014;8.352;2022-12-20T14:25:51;6.30;99.90
28761;DHT22;15917;50.014;8.352;2022-12-20T14:28:38;6.20;99.90
28761;DHT22;15917;50.014;8.352;2022-12-20T14:31:06;6.10;99.90
28761;DHT22;15917;50.014;8.352;2022-12-20T14:33:45;6.10;99.90
28761;DHT22;15917;50.014;8.352;2022-12-20T14:36:19;6.10;99.90
28761;DHT22;15917;50.014;8.352;2022-12-20T14:38:47;6.00;99.90
28761;DHT22;15917;50.014;8.352;2022-12-20T14:44:03;6.00;99.90
28761;DHT22;15917;50.014;8.352;2022-12-20T14:46:37;6.00;99.90
28761;DHT22;15917;50.014;8.352;2022-12-20T14:51:48;6.00;99.90
28761;DHT22;15917;50.014;8.352;2022-12-20T14:54:17;5.90;99.90
28761;DHT22;15917;50.014;8.352;2022-12-20T14:56:45;5.90;99.90
28761;DHT22;15917;50.014;8.352;2022-12-20T14:59:17;6.00;99.90
28761;DHT22;15917;50.014;8.352;2022-12-20T15:01:49;6.10;99.90
28761;DHT22;15917;50.014;8.352;2022-12-20T15:04:32;6.10;99.90
28761;DHT22;15917;50.014;8.352;2022-12-20T15:07:00;6.10;99.90
28761;DHT22;15917;50.014;8.352;2022-12-20T15:09:26;6.10;99.90
28761;DHT22;15917;50.014;8.352;2022-12-20T15:11:52;6.10;99.90
28761;DHT22;15917;50.014;8.352;2022-12-20T15:14:37;5.90;99.90
28761;DHT22;15917;50.014;8.352;2022-12-20T15:17:10;5.90;99.90
28761;DHT22;15917;50.014;8.352;2022-12-20T15:19:36;5.90;99.90
28761;DHT22;15917;50.014;8.352;2022-12-20T15:22:02;5.80;99.90
28761;DHT22;15917;50.014;8.352;2022-12-20T15:24:28;5.80;99.90
28761;DHT22;15917;50.014;8.352;2022-12-20T15:26:54;5.80;99.90
28761;DHT22;15917;50.014;8.352;2022-12-20T15:29:26;5.80;99.90
28761;DHT22;15917;50.014;8.352;2022-12-20T15:31:58;6.80;99.90
28761;DHT22;15917;50.014;8.352;2022-12-20T15:34:32;7.90;99.90
28761;DHT22;15917;50.014;8.352;2022-12-20T15:36:58;8.30;99.90
28761;DHT22;15917;50.014;8.352;2022-12-20T15:39:25;8.00;99.90
28761;DHT22;15917;50.014;8.352;2022-12-20T15:41:51;7.60;99.90
28761;DHT22;15917;50.014;8.352;2022-12-20T15:44:22;7.20;99.90
28761;DHT22;15917;50.014;8.352;2022-12-20T15:46:49;6.90;99.90
28761;DHT22;15917;50.014;8.352;2022-12-20T15:49:23;6.80;99.90
28761;DHT22;15917;50.014;8.352;2022-12-20T15:51:51;6.60;99.90
28761;DHT22;15917;50.014;8.352;2022-12-20T15:54:28;6.50;99.90
28761;DHT22;15917;50.014;8.352;2022-12-20T15:56:56;6.40;99.90
28761;DHT22;15917;50.014;8.352;2022-12-20T15:59:22;6.30;99.90
28761;DHT22;15917;50.014;8.352;2022-12-20T16:01:48;6.20;99.90
28761;DHT22;15917;50.014;8.352;2022-12-20T16:04:18;6.10;99.90
28761;DHT22;15917;50.014;8.352;2022-12-20T16:06:46;6.00;99.90
28761;DHT22;15917;50.014;8.352;2022-12-20T16:09:12;5.80;99.90
28761;DHT22;15917;50.014;8.352;2022-12-20T16:11:38;5.80;99.90
28761;DHT22;15917;50.014;8.352;2022-12-20T16:14:04;5.80;99.90
28761;DHT22;15917;50.014;8.352;2022-12-20T16:16:35;5.70;99.90
28761;DHT22;15917;50.014;8.352;2022-12-20T16:19:02;5.70;99.90
28761;DHT22;15917;50.014;8.352;2022-12-20T16:21:33;5.70;99.90
28761;DHT22;15917;50.014;8.352;2022-12-20T16:24:00;5.70;99.90
28761;DHT22;15917;50.014;8.352;2022-12-20T16:26:26;5.70;99.90
28761;DHT22;15917;50.014;8.352;2022-12-20T16:28:54;5.70;99.90
28761;DHT22;15917;50.014;8.352;2022-12-20T16:31:40;5.70;99.90
28761;DHT22;15917;50.014;8.352;2022-12-20T16:34:12;5.70;99.90
28761;DHT22;15917;50.014;8.352;2022-12-20T16:36:38;5.70;99.90
28761;DHT22;15917;50.014;8.352;2022-12-20T16:39:04;5.70;99.90
28761;DHT22;15917;50.014;8.352;2022-12-20T16:41:31;5.70;99.90
28761;DHT22;15917;50.014;8.352;2022-12-20T16:43:59;5.70;99.90
28761;DHT22;15917;50.014;8.352;2022-12-20T16:46:27;5.70;99.90
28761;DHT22;15917;50.014;8.352;2022-12-20T16:48:54;5.70;99.90
28761;DHT22;15917;50.014;8.352;2022-12-20T16:51:29;5.70;99.90
28761;DHT22;15917;50.014;8.352;2022-12-20T16:54:19;5.70;99.90
28761;DHT22;15917;50.014;8.352;2022-12-20T16:56:47;5.70;99.90
28761;DHT22;15917;50.014;8.352;2022-12-20T16:59:13;5.60;99.90
28761;DHT22;15917;50.014;8.352;2022-12-20T17:01:40;5.70;99.90
28761;DHT22;15917;50.014;8.352;2022-12-20T17:04:12;5.60;99.90
28761;DHT22;15917;50.014;8.352;2022-12-20T17:06:38;5.60;99.90
28761;DHT22;15917;50.014;8.352;2022-12-20T17:09:03;5.50;99.90
28761;DHT22;15917;50.014;8.352;2022-12-20T17:11:30;5.50;99.90
28761;DHT22;15917;50.014;8.352;2022-12-20T17:13:57;5.60;99.90
28761;DHT22;15917;50.014;8.352;2022-12-20T17:16:24;5.60;99.90
28761;DHT22;15917;50.014;8.352;2022-12-20T17:18:51;5.60;99.90
28761;DHT22;15917;50.014;8.352;2022-12-20T17:21:22;5.60;99.90
28761;DHT22;15917;50.014;8.352;2022-12-20T17:23:49;5.50;99.90
28761;DHT22;15917;50.014;8.352;2022-12-20T17:26:21;5.60;99.90
28761;DHT22;15917;50.014;8.352;2022-12-20T17:28:52;5.60;99.90
28761;DHT22;15917;50.014;8.352;2022-12-20T17:33:49;5.50;99.90
28761;DHT22;15917;50.014;8.352;2022-12-20T17:36:14;5.50;99.90
28761;DHT22;15917;50.014;8.352;2022-12-20T17:38:40;5.60;99.90
28761;DHT22;15917;50.014;8.352;2022-12-20T17:43:45;5.50;99.90
28761;DHT22;15917;50.014;8.352;2022-12-20T17:46:10;5.50;99.90
28761;DHT22;15917;50.014;8.352;2022-12-20T17:48:36;5.50;99.90
28761;DHT22;15917;50.014;8.352;2022-12-20T17:51:02;5.50;99.90
28761;DHT22;15917;50.014;8.352;2022-12-20T17:53:28;5.50;99.90